Time;durP1;ratioP1;P1;durP2;ratioP2;P2;SDS_P1;SDS_P2;PMS_P1;PMS_P2;Temp;Humidity;BMP_temperature;BMP_pressure;BME280_temperature;BME280_humidity;BME280_pressure;Samples;Min_cycle;Max_cycle;Signal;HPM_P1;HPM_P2
2023/06/01 00:00:33;;;;;;;12.73;6.05;;;11.70;99.90;;;;;;4996385;28;94300;-31
2023/06/01 00:02:58;;;;;;;7.40;5.43;;;11.70;99.90;;;;;;4996296;28;94652;-31
2023/06/01 00:05:24;;;;;;;11.82;5.43;;;11.70;99.90;;;;;;4995984;28;94678;-34
2023/06/01 00:07:50;;;;;;;15.27;6.45;;;11.70;99.90;;;;;;4978765;28;94347;-34
2023/06/01 00:10:16;;;;;;;10.38;5.63;;;11.60;99.90;;;;;;4995915;28;92473;-33
2023/06/01 00:12:43;;;;;;;17.33;6.57;;;11.70;99.90;;;;;;4961592;28;94323;-31
2023/06/01 00:15:09;;;;;;;10.50;5.18;;;11.70;99.90;;;;;;4995340;28;94709;-34
2023/06/01 00:17:34;;;;;;;6.45;4.63;;;11.70;99.90;;;;;;4995993;28;93092;-33
2023/06/01 00:20:09;;;;;;;13.07;5.72;;;11.60;99.90;;;;;;4995726;28;94734;-32
2023/06/01 00:22:38;;;;;;;10.20;5.93;;;11.60;99.90;;;;;;4995431;28;95385;-32
2023/06/01 00:25:06;;;;;;;10.25;5.93;;;11.60;99.90;;;;;;4996362;28;94289;-33
2023/06/01 00:27:31;;;;;;;15.00;7.20;;;11.60;99.90;;;;;;4996514;28;93556;-32
2023/06/01 00:29:57;;;;;;;9.10;5.32;;;11.50;99.90;;;;;;4995468;28;93807;-32
2023/06/01 00:32:22;;;;;;;11.85;6.78;;;11.60;99.90;;;;;;4995688;28;94813;-35
2023/06/01 00:34:48;;;;;;;9.27;5.80;;;11.60;99.90;;;;;;4995880;28;94626;-31
2023/06/01 00:37:14;;;;;;;12.73;6.65;;;11.60;99.90;;;;;;4995842;28;92461;-37
2023/06/01 00:39:39;;;;;;;8.00;5.40;;;11.60;99.90;;;;;;4978319;28;93239;-32
2023/06/01 00:42:06;;;;;;;11.32;6.40;;;11.60;99.90;;;;;;4994603;28;95539;-33
2023/06/01 00:44:31;;;;;;;11.27;5.15;;;11.60;99.90;;;;;;4995476;28;95634;-31
2023/06/01 00:46:59;;;;;;;17.67;5.82;;;11.60;99.90;;;;;;4995797;28;93196;-32
2023/06/01 00:49:25;;;;;;;10.93;6.27;;;11.60;99.90;;;;;;4995334;28;94927;-32
2023/06/01 00:51:51;;;;;;;22.10;6.85;;;11.70;99.90;;;;;;4995916;28;93811;-34
2023/06/01 00:54:17;;;;;;;16.15;6.25;;;11.70;99.90;;;;;;4995847;28;94792;-34
2023/06/01 00:56:43;;;;;;;27.08;5.93;;;11.60;99.90;;;;;;4999377;28;94934;-36
2023/06/01 00:59:09;;;;;;;11.80;6.60;;;11.50;99.90;;;;;;4999318;28;94001;-33
2023/06/01 01:01:36;;;;;;;7.10;5.63;;;11.50;99.90;;;;;;4998561;28;94518;-36
2023/06/01 01:04:02;;;;;;;17.70;7.60;;;11.60;99.90;;;;;;4998832;28;94041;-32
2023/06/01 01:06:34;;;;;;;13.18;7.10;;;11.60;99.90;;;;;;4998809;28;94033;-31
2023/06/01 01:09:37;;;;;;;11.65;5.45;;;11.50;99.90;;;;;;4999316;28;95332;-31
2023/06/01 01:12:28;;;;;;;13.15;5.88;;;11.50;99.90;;;;;;4999012;28;94660;-33
2023/06/01 01:15:11;;;;;;;19.60;5.90;;;11.50;99.90;;;;;;4998131;28;94927;-34
2023/06/01 01:17:42;;;;;;;10.70;6.00;;;11.40;99.90;;;;;;4980157;28;93495;-34
2023/06/01 01:20:26;;;;;;;13.30;6.20;;;11.40;99.90;;;;;;4998649;28;93996;-31
2023/06/01 01:22:56;;;;;;;6.75;5.65;;;11.40;99.90;;;;;;4963871;28;94511;-30
2023/06/01 01:25:51;;;;;;;10.02;6.40;;;11.40;99.90;;;;;;4998256;28;94938;-31
2023/06/01 01:28:49;;;;;;;12.43;5.82;;;11.40;99.90;;;;;;4998678;28;92690;-33
2023/06/01 01:31:19;;;;;;;;;;;11.40;99.90;;;;;;4998932;28;93336;-30
2023/06/01 01:33:47;;;;;;;20.40;5.47;;;11.40;99.90;;;;;;4999541;28;95474;-33
2023/06/01 01:36:14;;;;;;;12.27;6.38;;;11.40;99.90;;;;;;4997972;28;96908;-33
2023/06/01 01:38:40;;;;;;;9.65;5.40;;;11.40;99.90;;;;;;4998033;28;93757;-36
2023/06/01 01:41:06;;;;;;;8.82;5.47;;;11.40;99.90;;;;;;4998805;28;92746;-31
2023/06/01 01:43:31;;;;;;;9.07;5.75;;;11.30;99.90;;;;;;4963501;28;95255;-32
2023/06/01 01:46:27;;;;;;;9.30;5.78;;;11.30;99.90;;;;;;4997750;28;94927;-31
2023/06/01 01:49:12;;;;;;;14.57;8.05;;;11.30;99.90;;;;;;4999033;28;94427;-35
2023/06/01 01:52:07;;;;;;;11.77;6.38;;;11.30;99.90;;;;;;4998489;28;92178;-33
2023/06/01 01:54:37;;;;;;;10.18;5.75;;;11.30;99.90;;;;;;4998203;28;95411;-33
2023/06/01 01:57:04;;;;;;;12.75;5.95;;;11.30;99.90;;;;;;4997535;28;94659;-30
2023/06/01 01:59:31;;;;;;;16.30;5.80;;;11.30;99.90;;;;;;4997765;28;94635;-33
2023/06/01 02:01:57;;;;;;;10.45;5.15;;;11.40;99.90;;;;;;4998305;28;94524;-30
2023/06/01 02:04:22;;;;;;;11.65;6.70;;;11.40;99.90;;;;;;4997027;28;94724;-33
2023/06/01 02:06:48;;;;;;;12.77;4.72;;;11.30;99.90;;;;;;4997213;28;94611;-35
2023/06/01 02:09:14;;;;;;;9.27;5.15;;;11.30;99.90;;;;;;4998201;28;94103;-36
2023/06/01 02:11:39;;;;;;;8.32;4.82;;;11.40;99.90;;;;;;4997941;28;92888;-31
2023/06/01 02:14:05;;;;;;;11.05;6.25;;;11.30;99.90;;;;;;4998114;28;94785;-31
2023/06/01 02:16:31;;;;;;;12.73;6.60;;;11.20;99.90;;;;;;4997868;28;95202;-34
2023/06/01 02:18:57;;;;;;;12.07;6.53;;;11.30;99.90;;;;;;4998624;28;93170;-34
2023/06/01 02:21:24;;;;;;;9.70;6.00;;;11.30;99.90;;;;;;4997465;28;92839;-36
2023/06/01 02:23:49;;;;;;;12.48;5.60;;;11.30;99.90;;;;;;4996612;28;95701;-33
2023/06/01 02:26:16;;;;;;;8.85;5.60;;;11.20;99.90;;;;;;4997132;28;96050;-30
2023/06/01 02:28:42;;;;;;;13.13;6.25;;;11.30;99.90;;;;;;4979518;28;94331;-34
2023/06/01 02:31:09;;;;;;;24.17;5.53;;;11.20;99.90;;;;;;4979423;28;93134;-33
2023/06/01 02:33:35;;;;;;;8.10;5.82;;;11.20;99.90;;;;;;4997753;28;94596;-31
2023/06/01 02:36:00;;;;;;;13.25;6.28;;;11.20;99.90;;;;;;4978986;28;95896;-32
2023/06/01 02:38:26;;;;;;;11.38;4.55;;;11.20;99.90;;;;;;4997531;28;94827;-35
2023/06/01 02:40:52;;;;;;;10.75;7.10;;;11.10;99.90;;;;;;4997657;28;92958;-36
2023/06/01 02:43:17;;;;;;;8.93;5.20;;;11.20;99.90;;;;;;4997107;28;95401;-33
2023/06/01 02:45:43;;;;;;;12.00;5.55;;;11.20;99.90;;;;;;4997655;28;95856;-32
2023/06/01 02:48:09;;;;;;;7.88;4.32;;;11.20;99.90;;;;;;4996697;28;95874;-32
2023/06/01 02:50:35;;;;;;;11.00;5.75;;;11.10;99.90;;;;;;4979574;28;94294;-33
2023/06/01 02:53:01;;;;;;;12.38;4.72;;;11.10;99.90;;;;;;4996897;28;94937;-35
2023/06/01 02:55:27;;;;;;;6.75;4.32;;;11.10;99.90;;;;;;4979202;28;96737;-35
2023/06/01 02:57:52;;;;;;;9.68;5.30;;;11.10;99.90;;;;;;4980143;28;94615;-31
2023/06/01 03:00:18;;;;;;;12.05;5.90;;;11.20;99.90;;;;;;4996632;28;93086;-33
2023/06/01 03:02:47;;;;;;;8.85;5.55;;;11.20;99.90;;;;;;4997123;28;94927;-33
2023/06/01 03:05:15;;;;;;;9.13;5.65;;;11.10;99.90;;;;;;4997282;28;94956;-31
2023/06/01 03:07:41;;;;;;;8.68;6.45;;;11.10;99.90;;;;;;4996706;28;93438;-31
2023/06/01 03:10:08;;;;;;;14.75;5.65;;;11.00;99.90;;;;;;4996783;28;93391;-34
2023/06/01 03:12:33;;;;;;;8.25;4.72;;;11.10;99.90;;;;;;4997292;28;94869;-31
2023/06/01 03:14:59;;;;;;;14.18;5.60;;;11.00;99.90;;;;;;4996410;28;95365;-31
2023/06/01 03:17:25;;;;;;;6.03;4.03;;;11.10;99.90;;;;;;4996687;28;94116;-35
2023/06/01 03:19:51;;;;;;;7.20;5.10;;;11.00;99.90;;;;;;4997313;28;94459;-31
2023/06/01 03:22:17;;;;;;;8.25;5.25;;;11.00;99.90;;;;;;4996089;28;95416;-35
2023/06/01 03:24:43;;;;;;;14.70;4.85;;;11.00;99.90;;;;;;4996848;28;94872;-32
2023/06/01 03:27:10;;;;;;;5.75;3.47;;;11.00;99.90;;;;;;4996848;28;93245;-32
2023/06/01 03:29:36;;;;;;;8.40;3.53;;;11.10;99.90;;;;;;4997133;28;92036;-33
2023/06/01 03:32:02;;;;;;;8.45;4.82;;;11.00;99.90;;;;;;4997271;28;94668;-33
2023/06/01 03:34:29;;;;;;;7.65;4.53;;;11.00;99.90;;;;;;4995468;28;94770;-33
2023/06/01 03:36:56;;;;;;;7.38;4.25;;;11.10;99.90;;;;;;4996236;28;93917;-31
2023/06/01 03:39:21;;;;;;;8.13;5.32;;;11.10;99.90;;;;;;4996935;28;94462;-31
2023/06/01 03:41:47;;;;;;;7.90;3.92;;;11.00;99.90;;;;;;4996354;28;94543;-33
2023/06/01 03:44:13;;;;;;;6.40;3.95;;;11.00;99.90;;;;;;4978672;28;95095;-30
2023/06/01 03:46:39;;;;;;;8.05;2.80;;;11.00;99.90;;;;;;4997040;28;93204;-31
2023/06/01 03:49:05;;;;;;;7.75;4.22;;;11.00;99.90;;;;;;4995996;28;92623;-32
2023/06/01 03:51:31;;;;;;;8.27;4.75;;;11.10;99.90;;;;;;4996490;28;95034;-32
2023/06/01 03:53:57;;;;;;;11.88;4.78;;;11.10;99.90;;;;;;4996359;28;94422;-34
2023/06/01 03:56:23;;;;;;;15.95;5.05;;;11.10;99.90;;;;;;4996588;28;93749;-32
2023/06/01 03:58:49;;;;;;;9.60;4.68;;;11.10;99.90;;;;;;4996188;28;92226;-31
2023/06/01 04:01:19;;;;;;;8.18;4.60;;;11.00;99.90;;;;;;4995101;28;95951;-32
2023/06/01 04:03:48;;;;;;;9.82;4.35;;;11.00;99.90;;;;;;4995430;28;95729;-35
2023/06/01 04:06:17;;;;;;;;;;;11.10;99.90;;;;;;4996604;28;92264;-33
2023/06/01 04:08:48;;;;;;;6.93;4.03;;;11.10;99.90;;;;;;4996814;28;94428;-36
2023/06/01 04:11:17;;;;;;;5.80;4.47;;;11.10;99.90;;;;;;4995301;28;94930;-32
2023/06/01 04:13:43;;;;;;;10.43;6.25;;;11.00;99.90;;;;;;4995119;28;94583;-31
2023/06/01 04:16:10;;;;;;;10.63;6.75;;;11.10;99.90;;;;;;4996372;28;94768;-35
2023/06/01 04:18:36;;;;;;;9.02;4.80;;;11.10;99.90;;;;;;4996748;28;92750;-33
2023/06/01 04:21:02;;;;;;;6.03;4.50;;;11.10;99.90;;;;;;4994956;28;94707;-34
2023/06/01 04:23:28;;;;;;;6.57;4.82;;;11.10;99.90;;;;;;5014046;22;94587;-32
2023/06/01 04:25:58;;;;;;;10.35;4.45;;;11.00;99.90;;;;;;4975108;28;94540;-30
2023/06/01 04:28:24;;;;;;;10.52;4.70;;;11.00;99.90;;;;;;4976223;28;92859;-34
2023/06/01 04:30:51;;;;;;;4.93;3.30;;;11.00;99.90;;;;;;4981998;28;94736;-36
2023/06/01 04:33:17;;;;;;;11.55;4.18;;;11.00;99.90;;;;;;4996550;28;94426;-34
2023/06/01 04:35:43;;;;;;;3.65;3.33;;;11.00;99.90;;;;;;4987888;28;94814;-31
2023/06/01 04:38:09;;;;;;;5.22;3.20;;;11.20;99.90;;;;;;4963735;28;92612;-33
2023/06/01 04:40:35;;;;;;;6.05;3.33;;;11.10;99.90;;;;;;4961360;28;94534;-31
2023/06/01 04:43:02;;;;;;;4.75;3.10;;;11.00;99.90;;;;;;4963025;28;94541;-32
2023/06/01 04:45:33;;;;;;;6.78;4.65;;;11.00;99.90;;;;;;4962250;28;93470;-35
2023/06/01 04:47:59;;;;;;;8.48;3.83;;;11.00;99.90;;;;;;4962227;28;94492;-36
2023/06/01 04:50:28;;;;;;;6.50;3.08;;;11.10;99.90;;;;;;4961835;28;96241;-35
2023/06/01 04:52:55;;;;;;;4.68;2.88;;;11.10;99.90;;;;;;4962979;28;95132;-32
2023/06/01 04:55:21;;;;;;;6.63;4.32;;;11.10;99.90;;;;;;4945034;28;92556;-31
2023/06/01 04:57:46;;;;;;;6.82;3.42;;;11.20;99.90;;;;;;4963263;28;94527;-35
2023/06/01 05:00:17;;;;;;;7.13;3.05;;;11.10;99.90;;;;;;4961846;28;94570;-33
2023/06/01 05:02:44;;;;;;;3.88;3.40;;;11.20;99.90;;;;;;4962714;28;94597;-33
2023/06/01 05:05:10;;;;;;;5.45;3.05;;;11.10;99.90;;;;;;4962622;28;92386;-32
2023/06/01 05:07:37;;;;;;;5.35;3.28;;;11.10;99.90;;;;;;4945351;28;92950;-35
2023/06/01 05:10:07;;;;;;;9.57;5.25;;;11.10;99.90;;;;;;4944719;28;94210;-31
2023/06/01 05:12:33;;;;;;;5.43;3.22;;;11.10;99.90;;;;;;4962358;28;94313;-30
2023/06/01 05:15:00;;;;;;;8.30;4.47;;;11.10;99.90;;;;;;4961718;28;94256;-33
2023/06/01 05:17:25;;;;;;;8.02;4.55;;;11.10;99.90;;;;;;4962557;28;93209;-32
2023/06/01 05:19:51;;;;;;;8.32;4.40;;;11.20;99.90;;;;;;4960898;28;96562;-32
2023/06/01 05:22:17;;;;;;;9.93;5.68;;;11.20;99.90;;;;;;4961473;28;94592;-32
2023/06/01 05:24:43;;;;;;;10.75;4.72;;;11.20;99.90;;;;;;4962373;28;92597;-33
2023/06/01 05:27:08;;;;;;;5.80;3.88;;;11.20;99.90;;;;;;4962058;28;94307;-33
2023/06/01 05:29:34;;;;;;;12.07;4.82;;;11.20;99.90;;;;;;4962060;28;94331;-36
2023/06/01 05:32:00;;;;;;;8.50;5.28;;;11.30;99.90;;;;;;4971791;28;94434;-32
2023/06/01 05:34:25;;;;;;;11.02;4.68;;;11.30;99.90;;;;;;4979621;28;94139;-35
2023/06/01 05:36:51;;;;;;;8.50;4.70;;;11.30;99.90;;;;;;4972952;28;93850;-30
2023/06/01 05:39:17;;;;;;;5.40;4.40;;;11.30;99.90;;;;;;4977985;28;95765;-35
2023/06/01 05:41:42;;;;;;;5.72;4.30;;;11.30;99.90;;;;;;4977758;28;95471;-34
2023/06/01 05:44:08;;;;;;;6.40;3.65;;;11.30;99.90;;;;;;4976240;28;93293;-32
2023/06/01 05:46:34;;;;;;;8.18;4.22;;;11.30;99.90;;;;;;4976035;28;94073;-32
2023/06/01 05:49:00;;;;;;;8.77;5.35;;;11.30;99.90;;;;;;4976754;28;94505;-31
2023/06/01 05:51:25;;;;;;;7.78;4.97;;;11.30;99.90;;;;;;4975234;28;95889;-32
2023/06/01 05:53:51;;;;;;;9.90;5.03;;;11.30;99.90;;;;;;4959357;28;92300;-35
2023/06/01 05:56:17;;;;;;;6.85;4.68;;;11.20;99.90;;;;;;4976805;28;93815;-35
2023/06/01 05:58:43;;;;;;;7.40;5.35;;;11.30;99.90;;;;;;4976116;28;94511;-36
2023/06/01 06:01:10;;;;;;;10.15;5.50;;;11.20;99.90;;;;;;4975908;28;94902;-33
2023/06/01 06:03:36;;;;;;;11.77;5.15;;;11.30;99.90;;;;;;4961618;28;94515;-30
2023/06/01 06:06:02;;;;;;;5.90;4.47;;;11.30;99.90;;;;;;4957121;28;93033;-33
2023/06/01 06:08:28;;;;;;;7.25;4.72;;;11.30;99.90;;;;;;4956292;28;94754;-33
2023/06/01 06:10:53;;;;;;;5.50;4.25;;;11.30;99.90;;;;;;4955444;28;94431;-35
2023/06/01 06:13:19;;;;;;;6.55;4.32;;;11.40;99.90;;;;;;4956686;28;93948;-30
2023/06/01 06:15:45;;;;;;;4.82;4.13;;;11.40;99.90;;;;;;4955981;28;93538;-32
2023/06/01 06:18:10;;;;;;;5.90;3.60;;;11.40;99.90;;;;;;4956280;28;94350;-33
2023/06/01 06:20:36;;;;;;;7.75;3.63;;;11.40;99.90;;;;;;4956125;28;93383;-33
2023/06/01 06:23:02;;;;;;;4.30;2.80;;;11.40;99.90;;;;;;4955315;28;94325;-32
2023/06/01 06:25:27;;;;;;;8.85;3.78;;;11.40;99.90;;;;;;4953951;28;92934;-34
2023/06/01 06:27:53;;;;;;;6.97;3.75;;;11.50;99.90;;;;;;4954673;28;96021;-34
2023/06/01 06:30:19;;;;;;;6.32;4.13;;;11.50;99.90;;;;;;4955800;28;95541;-33
2023/06/01 06:32:44;;;;;;;10.95;3.85;;;11.50;99.90;;;;;;4955794;28;92448;-33
2023/06/01 06:35:13;;;;;;;12.52;4.90;;;11.60;99.90;;;;;;4950164;28;93103;-32
2023/06/01 06:37:41;;;;;;;5.65;4.15;;;11.50;99.90;;;;;;4982740;28;95161;-32
2023/06/01 06:40:08;;;;;;;16.40;4.70;;;11.50;99.90;;;;;;4975275;28;94682;-31
2023/06/01 06:42:34;;;;;;;14.40;4.75;;;11.50;99.90;;;;;;4941180;28;93106;-33
2023/06/01 06:44:59;;;;;;;7.25;4.15;;;11.50;99.90;;;;;;4976172;28;92838;-36
2023/06/01 06:47:25;;;;;;;8.95;4.82;;;11.50;99.90;;;;;;4962609;28;94244;-32
2023/06/01 06:49:51;;;;;;;13.90;4.93;;;11.60;99.90;;;;;;4955024;28;94892;-37
2023/06/01 06:52:17;;;;;;;5.82;3.65;;;11.60;99.90;;;;;;4954202;28;94929;-32
2023/06/01 06:54:43;;;;;;;7.45;4.63;;;11.60;99.90;;;;;;4954064;28;93671;-34
2023/06/01 06:57:10;;;;;;;7.05;4.47;;;11.70;99.90;;;;;;4955593;28;94755;-33
2023/06/01 06:59:36;;;;;;;8.15;5.22;;;11.80;99.90;;;;;;4954930;28;94983;-31
2023/06/01 07:02:03;;;;;;;6.10;4.18;;;11.80;99.90;;;;;;4954997;28;94511;-32
2023/06/01 07:04:29;;;;;;;8.80;3.25;;;11.80;99.90;;;;;;4954929;28;94519;-36
2023/06/01 07:06:54;;;;;;;6.32;4.05;;;11.90;99.90;;;;;;4955502;28;94684;-32
2023/06/01 07:09:21;;;;;;;5.13;2.85;;;11.90;99.90;;;;;;4954810;28;94410;-31
2023/06/01 07:11:47;;;;;;;6.70;3.20;;;11.90;99.90;;;;;;4937737;28;92208;-32
2023/06/01 07:14:13;;;;;;;5.65;3.55;;;12.00;99.90;;;;;;4955003;28;94278;-34
2023/06/01 07:16:39;;;;;;;4.70;2.78;;;12.00;99.90;;;;;;4954154;28;95276;-33
2023/06/01 07:19:05;;;;;;;2.17;1.98;;;12.10;99.90;;;;;;4955785;28;95506;-32
2023/06/01 07:21:30;;;;;;;2.55;2.35;;;12.10;99.90;;;;;;4954687;28;95208;-32
2023/06/01 07:23:56;;;;;;;2.80;1.92;;;12.20;99.90;;;;;;4955228;28;92981;-32
2023/06/01 07:26:25;;;;;;;3.78;1.90;;;12.20;99.90;;;;;;4954669;28;94962;-32
2023/06/01 07:28:53;;;;;;;4.00;2.92;;;12.20;99.90;;;;;;4954624;28;94601;-34
2023/06/01 07:31:19;;;;;;;;;;;12.20;99.90;;;;;;4955288;28;92135;-33
2023/06/01 07:33:45;;;;;;;5.50;2.47;;;12.20;99.90;;;;;;4956591;28;92850;-32
2023/06/01 07:36:11;;;;;;;3.28;2.45;;;12.10;99.90;;;;;;4954579;28;94236;-35
2023/06/01 07:38:37;;;;;;;2.35;2.15;;;12.20;99.90;;;;;;4968747;28;95770;-33
2023/06/01 07:41:03;;;;;;;2.15;1.95;;;12.20;99.90;;;;;;4975035;28;93075;-31
2023/06/01 07:43:28;;;;;;;1.70;1.23;;;12.20;99.90;;;;;;4974553;28;94690;-34
2023/06/01 07:45:55;;;;;;;1.95;1.65;;;12.10;99.90;;;;;;4973817;28;94709;-30
2023/06/01 07:48:21;;;;;;;2.63;2.17;;;12.20;99.90;;;;;;4974087;28;94526;-34
2023/06/01 07:50:46;;;;;;;2.33;1.98;;;12.30;99.90;;;;;;4941098;28;92932;-33
2023/06/01 07:53:13;;;;;;;3.53;1.70;;;12.40;99.90;;;;;;4974112;28;94128;-31
2023/06/01 07:55:39;;;;;;;7.22;2.10;;;12.50;99.90;;;;;;4974000;28;94821;-34
2023/06/01 07:58:05;;;;;;;2.08;1.88;;;12.60;99.90;;;;;;4974998;28;93637;-33
2023/06/01 08:00:31;;;;;;;3.33;2.08;;;12.70;99.90;;;;;;4974273;28;93048;-33
2023/06/01 08:02:58;;;;;;;1.60;1.50;;;12.70;99.90;;;;;;4974161;28;93222;-33
2023/06/01 08:05:24;;;;;;;2.95;1.42;;;12.70;99.90;;;;;;4972910;28;95874;-31
2023/06/01 08:07:50;;;;;;;2.38;1.95;;;12.60;99.90;;;;;;4974196;28;95724;-33
2023/06/01 08:10:16;;;;;;;2.80;1.85;;;12.60;99.90;;;;;;4979316;28;94865;-37
2023/06/01 08:12:42;;;;;;;2.10;1.73;;;12.60;99.90;;;;;;4994238;28;93053;-32
2023/06/01 08:15:11;;;;;;;2.58;2.38;;;12.60;99.90;;;;;;4993482;28;95192;-32
2023/06/01 08:17:37;;;;;;;;;;;12.60;99.90;;;;;;4994404;28;93163;-35
2023/06/01 08:20:10;;;;;;;4.15;2.22;;;12.60;99.90;;;;;;4996083;28;92204;-32
2023/06/01 08:22:36;;;;;;;5.45;1.92;;;12.70;99.90;;;;;;4993919;28;92748;-31
2023/06/01 08:25:02;;;;;;;2.30;1.95;;;12.70;99.90;;;;;;4993995;28;94890;-31
2023/06/01 08:27:28;;;;;;;3.83;2.33;;;12.70;99.90;;;;;;4993348;28;95874;-31
2023/06/01 08:29:54;;;;;;;3.30;2.22;;;12.80;99.90;;;;;;4993593;28;95458;-35
2023/06/01 08:32:20;;;;;;;5.15;2.30;;;12.90;99.90;;;;;;4994253;28;93956;-31
2023/06/01 08:34:46;;;;;;;3.05;1.73;;;12.90;99.90;;;;;;4993969;28;95481;-35
2023/06/01 08:37:16;;;;;;;2.10;1.77;;;13.00;99.90;;;;;;4990826;28;94660;-35
2023/06/01 08:39:41;;;;;;;2.53;1.80;;;13.00;99.90;;;;;;4973142;28;93937;-36
2023/06/01 08:42:10;;;;;;;1.92;1.55;;;13.00;99.90;;;;;;4973521;28;94692;-33
2023/06/01 08:44:39;;;;;;;1.63;1.25;;;13.00;99.90;;;;;;4973114;28;94800;-34
2023/06/01 08:47:05;;;;;;;4.22;1.35;;;12.90;99.90;;;;;;4974171;28;94353;-34
2023/06/01 08:49:32;;;;;;;1.67;1.38;;;12.90;99.90;;;;;;4973037;28;94470;-36
2023/06/01 08:52:02;;;;;;;3.08;1.60;;;12.80;99.90;;;;;;4973744;28;92639;-32
2023/06/01 08:54:30;;;;;;;1.10;1.00;;;12.80;99.90;;;;;;4973447;28;96025;-32
2023/06/01 08:56:59;;;;;;;;;;;12.80;99.90;;;;;;4974698;28;95559;-30
2023/06/01 08:59:26;;;;;;;1.55;1.45;;;12.90;99.90;;;;;;4975329;28;94394;-33
2023/06/01 09:01:53;;;;;;;6.03;2.25;;;12.90;99.90;;;;;;4973602;28;92894;-33
2023/06/01 09:04:19;;;;;;;5.07;2.63;;;13.00;99.90;;;;;;4973198;28;94998;-36
2023/06/01 09:06:44;;;;;;;1.88;1.65;;;12.90;99.90;;;;;;4973497;28;94406;-33
2023/06/01 09:09:12;;;;;;;2.08;1.88;;;12.90;99.90;;;;;;4973608;28;94780;-36
2023/06/01 09:11:38;;;;;;;6.50;2.15;;;12.90;99.90;;;;;;4973716;28;93477;-32
2023/06/01 09:14:21;;;;;;;2.97;2.20;;;12.90;99.90;;;;;;4985281;28;94999;-33
2023/06/01 09:16:47;;;;;;;5.78;2.53;;;13.00;99.90;;;;;;4995759;28;94470;-36
2023/06/01 09:19:13;;;;;;;3.33;2.25;;;13.10;99.90;;;;;;4995861;28;95278;-32
2023/06/01 09:21:39;;;;;;;1.92;1.83;;;13.20;99.90;;;;;;4996159;28;94392;-32
2023/06/01 09:24:18;;;;;;;3.40;2.28;;;13.10;99.90;;;;;;4995887;28;94672;-30
2023/06/01 09:26:50;;;;;;;2.70;2.10;;;13.20;99.90;;;;;;4996763;28;95293;-35
2023/06/01 09:29:16;;;;;;;2.85;2.35;;;13.20;99.90;;;;;;4996949;28;93458;-32
2023/06/01 09:31:47;;;;;;;3.60;2.55;;;13.30;99.90;;;;;;4996776;28;92148;-32
2023/06/01 09:34:19;;;;;;;2.75;2.47;;;13.40;99.90;;;;;;4996172;28;94823;-36
2023/06/01 09:37:07;;;;;;;2.65;1.48;;;13.40;99.90;;;;;;4996522;28;94700;-33
2023/06/01 09:39:33;;;;;;;;;;;13.40;99.90;;;;;;4997043;28;93695;-34
2023/06/01 09:41:59;;;;;;;3.45;1.55;;;13.30;99.90;;;;;;4997575;28;92158;-32
2023/06/01 09:44:30;;;;;;;3.83;1.88;;;13.30;99.90;;;;;;4995000;28;95610;-33
2023/06/01 09:47:03;;;;;;;5.15;2.28;;;13.40;99.90;;;;;;4995895;28;95356;-34
2023/06/01 09:49:31;;;;;;;1.65;1.35;;;13.50;99.90;;;;;;4961712;28;93071;-31
2023/06/01 09:52:05;;;;;;;2.70;1.80;;;13.50;99.90;;;;;;4995792;28;93190;-32
2023/06/01 09:54:37;;;;;;;1.63;1.42;;;13.50;99.90;;;;;;4996029;28;92817;-34
2023/06/01 09:57:04;;;;;;;1.75;1.65;;;13.50;99.90;;;;;;4995373;28;94816;-34
2023/06/01 09:59:44;;;;;;;7.10;2.53;;;13.20;99.90;;;;;;4996209;28;92153;-33
2023/06/01 10:02:33;;;;;;;2.95;2.25;;;13.10;99.90;;;;;;4995572;28;91809;-34
2023/06/01 10:05:00;;;;;;;3.17;2.72;;;13.10;99.90;;;;;;4995139;28;94991;-30
2023/06/01 10:07:27;;;;;;;8.30;2.65;;;13.20;99.90;;;;;;4996084;28;94886;-35
2023/06/01 10:09:58;;;;;;;5.38;2.40;;;13.20;99.90;;;;;;4996255;28;94925;-35
2023/06/01 10:12:25;;;;;;;7.50;3.17;;;13.30;99.90;;;;;;4995511;28;92252;-33
2023/06/01 10:14:52;;;;;;;6.25;4.07;;;13.20;99.90;;;;;;4975902;28;95228;-33
2023/06/01 10:17:18;;;;;;;4.80;2.63;;;13.20;99.90;;;;;;4974905;28;94718;-32
2023/06/01 10:19:45;;;;;;;3.55;2.78;;;13.10;99.90;;;;;;4958611;28;92184;-31
2023/06/01 10:22:11;;;;;;;8.57;3.88;;;13.00;99.90;;;;;;4958059;28;92131;-31
2023/06/01 10:24:41;;;;;;;8.23;3.55;;;13.00;99.90;;;;;;4975702;28;94931;-33
2023/06/01 10:27:32;;;;;;;7.05;3.80;;;13.10;99.90;;;;;;4974591;28;93162;-34
2023/06/01 10:29:58;;;;;;;12.02;5.05;;;13.00;99.90;;;;;;4975353;28;94242;-32
2023/06/01 10:32:44;;;;;;;9.95;5.82;;;13.10;99.90;;;;;;4974568;28;92854;-31
2023/06/01 10:35:30;;;;;;;6.53;4.07;;;13.10;99.90;;;;;;4974941;28;95773;-32
2023/06/01 10:38:12;;;;;;;10.75;4.75;;;13.00;99.90;;;;;;4975560;28;95030;-32
2023/06/01 10:40:43;;;;;;;12.48;4.40;;;13.00;99.90;;;;;;4975347;28;92665;-31
2023/06/01 10:43:37;;;;;;;14.27;5.05;;;13.00;99.90;;;;;;4974708;28;93391;-33
2023/06/01 10:46:03;;;;;;;7.95;4.10;;;13.00;99.90;;;;;;4975584;28;95157;-32
2023/06/01 10:48:51;;;;;;;13.65;4.40;;;13.00;99.90;;;;;;4957547;28;94393;-33
2023/06/01 10:51:20;;;;;;;9.40;4.50;;;13.00;99.90;;;;;;4975260;28;94675;-33
2023/06/01 10:53:45;;;;;;;7.40;3.70;;;13.10;99.90;;;;;;4975674;28;94043;-32
2023/06/01 10:56:24;;;;;;;5.85;4.28;;;13.20;99.90;;;;;;4957289;28;95045;-31
2023/06/01 10:59:08;;;;;;;10.38;4.00;;;13.20;99.90;;;;;;4976017;28;95781;-30
2023/06/01 11:01:44;;;;;;;7.03;3.63;;;13.40;99.90;;;;;;4975655;28;94651;-35
2023/06/01 11:04:11;;;;;;;14.23;4.43;;;13.50;99.90;;;;;;4957347;28;94830;-32
2023/06/01 11:06:42;;;;;;;6.50;4.60;;;13.50;99.90;;;;;;4957940;28;94629;-31
2023/06/01 11:09:15;;;;;;;4.78;3.65;;;13.50;99.90;;;;;;4975522;28;93435;-33
2023/06/01 11:11:57;;;;;;;7.85;4.60;;;13.40;99.90;;;;;;4975593;28;94274;-33
2023/06/01 11:14:25;;;;;;;5.28;3.10;;;13.50;99.90;;;;;;4972681;28;93174;-30
2023/06/01 11:16:52;;;;;;;9.13;3.50;;;13.40;99.90;;;;;;4973976;28;94353;-35
2023/06/01 11:19:26;;;;;;;5.38;3.72;;;13.50;99.90;;;;;;4974720;28;94246;-32
2023/06/01 11:22:04;;;;;;;6.47;2.83;;;13.50;99.90;;;;;;4974416;28;92694;-35
2023/06/01 11:24:35;;;;;;;7.32;3.20;;;13.50;99.90;;;;;;4975937;28;94761;-30
2023/06/01 11:27:10;;;;;;;13.77;4.95;;;13.60;99.90;;;;;;4974680;28;94897;-34
2023/06/01 11:29:37;;;;;;;4.32;3.70;;;13.70;99.90;;;;;;4974508;28;96115;-30
2023/06/01 11:32:07;;;;;;;4.55;3.33;;;13.60;99.90;;;;;;4976054;28;93091;-31
2023/06/01 11:34:34;;;;;;;7.32;3.70;;;13.60;99.90;;;;;;4975556;28;94329;-35
2023/06/01 11:37:01;;;;;;;16.40;5.38;;;13.60;99.90;;;;;;4975301;28;94873;-30
2023/06/01 11:39:30;;;;;;;10.50;4.82;;;13.60;99.90;;;;;;4973872;28;94735;-32
2023/06/01 11:42:08;;;;;;;7.18;4.20;;;13.60;99.90;;;;;;4974462;28;93443;-32
2023/06/01 11:44:38;;;;;;;6.55;4.20;;;13.70;99.90;;;;;;4974746;28;92904;-32
2023/06/01 11:47:05;;;;;;;11.02;4.97;;;13.70;99.90;;;;;;4974421;28;94578;-32
2023/06/01 11:49:39;;;;;;;6.47;3.40;;;13.70;99.90;;;;;;4975169;28;94840;-32
2023/06/01 11:52:08;;;;;;;7.15;3.63;;;13.70;99.90;;;;;;4974012;28;94226;-35
2023/06/01 11:54:36;;;;;;;6.07;4.55;;;13.90;99.90;;;;;;4974409;28;93155;-31
2023/06/01 11:57:03;;;;;;;6.22;4.07;;;14.00;99.90;;;;;;4974474;28;94724;-32
2023/06/01 11:59:40;;;;;;;6.63;3.78;;;14.00;99.90;;;;;;4974603;28;94586;-34
2023/06/01 12:02:24;;;;;;;12.48;4.63;;;14.20;99.90;;;;;;4975571;28;93625;-33
2023/06/01 12:05:05;;;;;;;11.88;3.47;;;14.20;99.90;;;;;;4974188;28;94131;-34
2023/06/01 12:07:31;;;;;;;3.72;3.28;;;14.20;99.90;;;;;;4956898;28;94165;-32
2023/06/01 12:10:00;;;;;;;5.22;3.85;;;14.20;99.90;;;;;;4974777;28;94480;-34
2023/06/01 12:12:29;;;;;;;9.38;4.00;;;14.10;99.90;;;;;;4974550;28;93234;-31
2023/06/01 12:14:55;;;;;;;12.18;4.13;;;14.20;99.90;;;;;;4974822;28;93713;-37
2023/06/01 12:17:21;;;;;;;9.60;4.95;;;14.20;99.90;;;;;;4973268;28;97345;-31
2023/06/01 12:19:47;;;;;;;10.02;4.97;;;14.20;99.90;;;;;;4955700;28;96680;-32
2023/06/01 12:22:14;;;;;;;5.55;4.97;;;14.40;99.90;;;;;;4974871;28;93570;-35
2023/06/01 12:24:41;;;;;;;11.45;4.32;;;14.50;99.90;;;;;;4975184;28;93037;-32
2023/06/01 12:27:21;;;;;;;8.57;4.68;;;14.60;99.90;;;;;;4974136;28;95120;-33
2023/06/01 12:29:50;;;;;;;6.50;3.97;;;14.60;99.90;;;;;;4973832;28;94223;-36
2023/06/01 12:32:17;;;;;;;5.20;3.75;;;14.60;99.90;;;;;;4973540;28;93856;-34
2023/06/01 12:35:01;;;;;;;12.50;4.50;;;14.60;99.90;;;;;;4974678;28;93567;-35
2023/06/01 12:37:27;;;;;;;5.93;4.03;;;14.80;99.90;;;;;;4956498;28;94847;-30
2023/06/01 12:39:55;;;;;;;10.00;3.75;;;14.70;99.90;;;;;;4974083;28;94496;-32
2023/06/01 12:42:37;;;;;;;;;;;14.80;99.90;;;;;;4973692;28;93490;-36
2023/06/01 12:45:03;;;;;;;5.72;3.40;;;14.70;99.90;;;;;;4975264;28;92576;-34
2023/06/01 12:47:39;;;;;;;12.52;3.97;;;14.70;99.90;;;;;;4973656;28;94755;-36
2023/06/01 12:50:08;;;;;;;7.15;4.22;;;14.60;99.90;;;;;;4974775;28;94817;-30
2023/06/01 12:52:34;;;;;;;5.80;3.63;;;14.60;99.90;;;;;;4978168;28;93460;-34